sensor_id;sensor_type;location;lat;lon;timestamp;pressure;altitude;pressure_sealevel;temperature;humidity
67015;BME280;1033;52.560;13.374;2023-02-23T00:01:32;100891.47;;;5.16;87.51
67015;BME280;1033;52.560;13.374;2023-02-23T00:04:02;100879.41;;;5.12;87.68
67015;BME280;1033;52.560;13.374;2023-02-23T00:06:33;100877.91;;;5.17;87.11
67015;BME280;1033;52.560;13.374;2023-02-23T00:09:04;100880.75;;;5.16;87.14
67015;BME280;1033;52.560;13.374;2023-02-23T00:11:38;100870.00;;;5.16;87.21
67015;BME280;1033;52.560;13.374;2023-02-23T00:14:09;100870.50;;;5.19;87.53
67015;BME280;1033;52.560;13.374;2023-02-23T00:16:38;100875.03;;;5.19;86.89
67015;BME280;1033;52.560;13.374;2023-02-23T00:19:12;100872.34;;;5.19;86.96
67015;BME280;1033;52.560;13.374;2023-02-23T00:21:41;100876.34;;;5.23;86.88
67015;BME280;1033;52.560;13.374;2023-02-23T00:24:13;100872.34;;;5.27;86.46
67015;BME280;1033;52.560;13.374;2023-02-23T00:26:43;100873.19;;;5.19;86.80
67015;BME280;1033;52.560;13.374;2023-02-23T00:29:17;100873.69;;;5.23;86.84
67015;BME280;1033;52.560;13.374;2023-02-23T00:31:54;100869.66;;;5.19;86.83
67015;BME280;1033;52.560;13.374;2023-02-23T00:34:24;100871.16;;;5.13;87.02
67015;BME280;1033;52.560;13.374;2023-02-23T00:36:53;100869.84;;;5.17;87.33
67015;BME280;1033;52.560;13.374;2023-02-23T00:39:23;100875.88;;;5.19;86.95
67015;BME280;1033;52.560;13.374;2023-02-23T00:41:56;100875.19;;;5.09;87.16
67015;BME280;1033;52.560;13.374;2023-02-23T00:44:31;100862.97;;;5.15;86.96
67015;BME280;1033;52.560;13.374;2023-02-23T00:47:02;100862.63;;;5.10;87.11
67015;BME280;1033;52.560;13.374;2023-02-23T00:49:32;100855.75;;;5.07;87.55
67015;BME280;1033;52.560;13.374;2023-02-23T00:52:06;100858.41;;;4.99;88.05
67015;BME280;1033;52.560;13.374;2023-02-23T00:54:35;100859.25;;;5.00;87.51
67015;BME280;1033;52.560;13.374;2023-02-23T00:57:07;100853.91;;;5.00;87.98
67015;BME280;1033;52.560;13.374;2023-02-23T00:59:37;100850.72;;;5.04;87.58
67015;BME280;1033;52.560;13.374;2023-02-23T01:02:07;100857.28;;;4.94;87.84
67015;BME280;1033;52.560;13.374;2023-02-23T01:04:36;100858.59;;;4.98;87.87
67015;BME280;1033;52.560;13.374;2023-02-23T01:07:05;100860.78;;;5.02;87.59
67015;BME280;1033;52.560;13.374;2023-02-23T01:09:35;100867.81;;;4.95;88.71
67015;BME280;1033;52.560;13.374;2023-02-23T01:12:05;100861.44;;;4.88;88.09
67015;BME280;1033;52.560;13.374;2023-02-23T01:14:36;100855.06;;;4.89;88.12
67015;BME280;1033;52.560;13.374;2023-02-23T01:17:06;100855.59;;;4.93;88.49
67015;BME280;1033;52.560;13.374;2023-02-23T01:19:36;100854.59;;;4.94;88.17
67015;BME280;1033;52.560;13.374;2023-02-23T01:22:05;100861.94;;;4.92;87.91
67015;BME280;1033;52.560;13.374;2023-02-23T01:24:34;100857.25;;;4.86;88.27
67015;BME280;1033;52.560;13.374;2023-02-23T01:27:05;100848.53;;;4.92;87.81
67015;BME280;1033;52.560;13.374;2023-02-23T01:29:34;100846.19;;;4.89;87.89
67015;BME280;1033;52.560;13.374;2023-02-23T01:32:05;100844.84;;;4.85;88.37
67015;BME280;1033;52.560;13.374;2023-02-23T01:34:34;100836.44;;;4.79;88.07
67015;BME280;1033;52.560;13.374;2023-02-23T01:37:03;100842.16;;;4.85;88.10
67015;BME280;1033;52.560;13.374;2023-02-23T01:39:32;100841.81;;;4.79;88.09
67015;BME280;1033;52.560;13.374;2023-02-23T01:42:02;100843.16;;;4.75;88.20
67015;BME280;1033;52.560;13.374;2023-02-23T01:45:11;100834.75;;;4.70;88.56
67015;BME280;1033;52.560;13.374;2023-02-23T01:47:46;100835.25;;;4.66;89.09
67015;BME280;1033;52.560;13.374;2023-02-23T01:50:16;100832.09;;;4.70;88.84
67015;BME280;1033;52.560;13.374;2023-02-23T01:52:48;100826.91;;;4.69;88.91
67015;BME280;1033;52.560;13.374;2023-02-23T01:55:20;100822.88;;;4.65;89.04
67015;BME280;1033;52.560;13.374;2023-02-23T01:57:56;100820.38;;;4.63;88.85
67015;BME280;1033;52.560;13.374;2023-02-23T02:00:31;100830.59;;;4.60;88.98
67015;BME280;1033;52.560;13.374;2023-02-23T02:03:11;100817.34;;;4.58;89.09
67015;BME280;1033;52.560;13.374;2023-02-23T02:05:42;100824.88;;;4.55;89.18
67015;BME280;1033;52.560;13.374;2023-02-23T02:08:14;100819.69;;;4.53;89.39
67015;BME280;1033;52.560;13.374;2023-02-23T02:10:48;100813.97;;;4.56;89.19
67015;BME280;1033;52.560;13.374;2023-02-23T02:13:26;100818.16;;;4.43;89.42
67015;BME280;1033;52.560;13.374;2023-02-23T02:19:26;100808.13;;;4.45;89.56
67015;BME280;1033;52.560;13.374;2023-02-23T02:22:28;100798.41;;;4.52;89.51
67015;BME280;1033;52.560;13.374;2023-02-23T02:28:46;100792.00;;;4.36;89.97
67015;BME280;1033;52.560;13.374;2023-02-23T02:38:42;100804.53;;;4.28;90.64
67015;BME280;1033;52.560;13.374;2023-02-23T02:41:27;100796.50;;;4.28;90.60
67015;BME280;1033;52.560;13.374;2023-02-23T02:45:23;100798.00;;;4.22;90.81
67015;BME280;1033;52.560;13.374;2023-02-23T02:49:28;100795.50;;;4.21;91.08
67015;BME280;1033;52.560;13.374;2023-02-23T02:57:18;100795.31;;;4.22;91.71
67015;BME280;1033;52.560;13.374;2023-02-23T02:59:49;100783.75;;;4.22;91.48
67015;BME280;1033;52.560;13.374;2023-02-23T03:02:38;100780.59;;;4.26;91.23
67015;BME280;1033;52.560;13.374;2023-02-23T03:05:40;100778.75;;;4.27;91.20
67015;BME280;1033;52.560;13.374;2023-02-23T03:08:42;100781.78;;;4.24;90.87
67015;BME280;1033;52.560;13.374;2023-02-23T03:11:38;100769.06;;;4.26;92.08
67015;BME280;1033;52.560;13.374;2023-02-23T03:14:32;100766.38;;;4.26;90.72
67015;BME280;1033;52.560;13.374;2023-02-23T03:17:26;100762.69;;;4.19;91.35
67015;BME280;1033;52.560;13.374;2023-02-23T03:20:23;100763.53;;;4.19;91.19
67015;BME280;1033;52.560;13.374;2023-02-23T03:23:20;100766.34;;;4.18;91.11
67015;BME280;1033;52.560;13.374;2023-02-23T03:26:15;100767.34;;;4.09;92.04
67015;BME280;1033;52.560;13.374;2023-02-23T03:29:09;100757.66;;;4.16;91.84
67015;BME280;1033;52.560;13.374;2023-02-23T03:32:05;100760.50;;;4.14;91.85
67015;BME280;1033;52.560;13.374;2023-02-23T03:35:00;100757.97;;;4.13;92.26
67015;BME280;1033;52.560;13.374;2023-02-23T03:37:52;100765.00;;;4.22;91.71
67015;BME280;1033;52.560;13.374;2023-02-23T03:40:47;100770.00;;;4.09;91.81
67015;BME280;1033;52.560;13.374;2023-02-23T03:43:38;100761.13;;;4.08;92.33
67015;BME280;1033;52.560;13.374;2023-02-23T03:46:30;100758.63;;;4.07;92.06
67015;BME280;1033;52.560;13.374;2023-02-23T03:49:20;100760.13;;;4.01;92.67
67015;BME280;1033;52.560;13.374;2023-02-23T03:52:12;100756.25;;;3.96;92.91
67015;BME280;1033;52.560;13.374;2023-02-23T03:55:08;100750.84;;;3.87;93.17
67015;BME280;1033;52.560;13.374;2023-02-23T03:58:00;100748.94;;;4.06;92.17
67015;BME280;1033;52.560;13.374;2023-02-23T04:01:03;100750.59;;;4.07;92.29
67015;BME280;1033;52.560;13.374;2023-02-23T04:04:00;100740.69;;;3.99;92.41
67015;BME280;1033;52.560;13.374;2023-02-23T04:07:57;100747.06;;;3.98;92.88
67015;BME280;1033;52.560;13.374;2023-02-23T04:10:53;100749.72;;;3.98;92.93
67015;BME280;1033;52.560;13.374;2023-02-23T04:13:45;100752.19;;;3.83;93.45
67015;BME280;1033;52.560;13.374;2023-02-23T04:16:16;100753.53;;;3.79;93.65
67015;BME280;1033;52.560;13.374;2023-02-23T04:18:50;100754.22;;;3.81;93.64
67015;BME280;1033;52.560;13.374;2023-02-23T04:21:37;100747.38;;;3.87;93.96
67015;BME280;1033;52.560;13.374;2023-02-23T04:24:34;100758.72;;;3.81;93.50
67015;BME280;1033;52.560;13.374;2023-02-23T04:27:17;100755.34;;;3.79;94.02
67015;BME280;1033;52.560;13.374;2023-02-23T04:30:01;100756.91;;;3.89;93.82
67015;BME280;1033;52.560;13.374;2023-02-23T04:32:41;100748.00;;;3.81;93.35
67015;BME280;1033;52.560;13.374;2023-02-23T04:35:53;100753.50;;;3.71;94.02
67015;BME280;1033;52.560;13.374;2023-02-23T04:38:33;100741.44;;;3.67;94.51
67015;BME280;1033;52.560;13.374;2023-02-23T04:41:35;100743.63;;;3.72;94.29
67015;BME280;1033;52.560;13.374;2023-02-23T04:45:14;100740.41;;;3.60;94.67
67015;BME280;1033;52.560;13.374;2023-02-23T04:47:50;100738.09;;;3.65;94.88
67015;BME280;1033;52.560;13.374;2023-02-23T04:50:40;100734.78;;;3.71;94.64
67015;BME280;1033;52.560;13.374;2023-02-23T06:43:48;100763.34;;;3.29;95.01
67015;BME280;1033;52.560;13.374;2023-02-23T06:46:18;100768.69;;;3.29;95.09
67015;BME280;1033;52.560;13.374;2023-02-23T06:48:48;100759.34;;;3.33;95.33
67015;BME280;1033;52.560;13.374;2023-02-23T06:51:23;100768.03;;;3.35;95.73
67015;BME280;1033;52.560;13.374;2023-02-23T06:53:52;100768.75;;;3.45;95.14
67015;BME280;1033;52.560;13.374;2023-02-23T06:56:22;100772.19;;;3.63;94.44
67015;BME280;1033;52.560;13.374;2023-02-23T06:58:52;100770.53;;;3.62;93.70
67015;BME280;1033;52.560;13.374;2023-02-23T07:01:21;100765.56;;;3.75;93.04
67015;BME280;1033;52.560;13.374;2023-02-23T07:03:52;100765.22;;;3.78;92.67
67015;BME280;1033;52.560;13.374;2023-02-23T07:06:32;100762.63;;;3.94;92.58
67015;BME280;1033;52.560;13.374;2023-02-23T07:09:05;100760.28;;;4.00;91.96
67015;BME280;1033;52.560;13.374;2023-02-23T07:11:39;100766.69;;;4.15;91.42
67015;BME280;1033;52.560;13.374;2023-02-23T07:14:52;100763.03;;;4.16;91.53
67015;BME280;1033;52.560;13.374;2023-02-23T07:18:00;100761.69;;;4.28;90.16
67015;BME280;1033;52.560;13.374;2023-02-23T07:21:55;100763.72;;;4.42;89.57
67015;BME280;1033;52.560;13.374;2023-02-23T08:15:53;100754.97;;;5.76;83.73
67015;BME280;1033;52.560;13.374;2023-02-23T08:18:24;100747.91;;;5.83;82.76
67015;BME280;1033;52.560;13.374;2023-02-23T08:20:58;100749.56;;;5.84;82.72
67015;BME280;1033;52.560;13.374;2023-02-23T08:23:29;100747.00;;;5.99;82.58
67015;BME280;1033;52.560;13.374;2023-02-23T08:26:00;100743.63;;;6.05;82.42
67015;BME280;1033;52.560;13.374;2023-02-23T08:28:31;100744.03;;;5.94;82.28
67015;BME280;1033;52.560;13.374;2023-02-23T08:31:10;100743.19;;;5.93;82.48
67015;BME280;1033;52.560;13.374;2023-02-23T08:33:40;100742.91;;;6.11;81.86
67015;BME280;1033;52.560;13.374;2023-02-23T08:36:09;100749.00;;;6.05;81.76
67015;BME280;1033;52.560;13.374;2023-02-23T08:38:38;100743.66;;;6.28;81.32
67015;BME280;1033;52.560;13.374;2023-02-23T08:41:07;100745.44;;;6.35;80.70
67015;BME280;1033;52.560;13.374;2023-02-23T08:43:36;100749.63;;;6.38;80.46
67015;BME280;1033;52.560;13.374;2023-02-23T08:46:06;100746.34;;;6.50;79.74
67015;BME280;1033;52.560;13.374;2023-02-23T08:48:37;100739.28;;;6.49;80.20
67015;BME280;1033;52.560;13.374;2023-02-23T08:51:07;100743.78;;;6.57;80.00
67015;BME280;1033;52.560;13.374;2023-02-23T08:53:36;100755.59;;;6.71;79.68
67015;BME280;1033;52.560;13.374;2023-02-23T08:56:07;100747.03;;;6.90;78.97
67015;BME280;1033;52.560;13.374;2023-02-23T08:58:36;100753.06;;;6.92;78.73
67015;BME280;1033;52.560;13.374;2023-02-23T09:01:05;100749.00;;;6.96;78.82
67015;BME280;1033;52.560;13.374;2023-02-23T09:03:35;100755.75;;;6.92;77.96
67015;BME280;1033;52.560;13.374;2023-02-23T09:06:10;100760.56;;;6.82;79.15
67015;BME280;1033;52.560;13.374;2023-02-23T09:08:40;100757.50;;;6.85;79.29
67015;BME280;1033;52.560;13.374;2023-02-23T09:11:09;100755.22;;;6.96;78.76
67015;BME280;1033;52.560;13.374;2023-02-23T09:13:38;100754.13;;;7.06;78.85
67015;BME280;1033;52.560;13.374;2023-02-23T09:16:08;100750.88;;;7.10;78.71
67015;BME280;1033;52.560;13.374;2023-02-23T09:18:39;100750.06;;;7.24;78.38
67015;BME280;1033;52.560;13.374;2023-02-23T09:21:13;100755.28;;;7.26;78.76
67015;BME280;1033;52.560;13.374;2023-02-23T09:23:46;100752.03;;;7.30;78.60
67015;BME280;1033;52.560;13.374;2023-02-23T09:26:18;100739.84;;;7.20;78.99
67015;BME280;1033;52.560;13.374;2023-02-23T09:28:48;100751.25;;;7.36;79.09
67015;BME280;1033;52.560;13.374;2023-02-23T09:31:20;100749.81;;;7.49;78.16
67015;BME280;1033;52.560;13.374;2023-02-23T09:33:52;100752.31;;;7.50;78.27
67015;BME280;1033;52.560;13.374;2023-02-23T09:36:23;100747.38;;;7.54;78.03
67015;BME280;1033;52.560;13.374;2023-02-23T09:38:54;100748.19;;;7.83;77.14
67015;BME280;1033;52.560;13.374;2023-02-23T09:41:44;100752.69;;;8.12;76.36
67015;BME280;1033;52.560;13.374;2023-02-23T09:44:21;100754.13;;;7.94;75.71
67015;BME280;1033;52.560;13.374;2023-02-23T09:47:04;100754.44;;;7.84;76.92
67015;BME280;1033;52.560;13.374;2023-02-23T09:49:41;100744.44;;;7.99;76.46
67015;BME280;1033;52.560;13.374;2023-02-23T09:52:16;100747.75;;;8.16;75.83
67015;BME280;1033;52.560;13.374;2023-02-23T09:54:47;100747.56;;;8.17;75.50
67015;BME280;1033;52.560;13.374;2023-02-23T09:57:20;100747.88;;;8.44;75.31
67015;BME280;1033;52.560;13.374;2023-02-23T09:59:51;100752.13;;;8.74;73.31
67015;BME280;1033;52.560;13.374;2023-02-23T10:02:24;100748.59;;;8.95;72.70
67015;BME280;1033;52.560;13.374;2023-02-23T10:05:00;100752.50;;;8.92;73.17
67015;BME280;1033;52.560;13.374;2023-02-23T10:07:35;100751.88;;;8.90;72.32
67015;BME280;1033;52.560;13.374;2023-02-23T10:10:20;100745.78;;;9.09;72.62
67015;BME280;1033;52.560;13.374;2023-02-23T10:12:58;100740.31;;;9.31;72.34
67015;BME280;1033;52.560;13.374;2023-02-23T10:15:35;100747.69;;;9.15;72.09
67015;BME280;1033;52.560;13.374;2023-02-23T10:18:15;100749.31;;;9.38;72.19
67015;BME280;1033;52.560;13.374;2023-02-23T10:20:52;100744.28;;;9.35;71.56
67015;BME280;1033;52.560;13.374;2023-02-23T10:23:27;100738.88;;;9.69;70.76
67015;BME280;1033;52.560;13.374;2023-02-23T10:25:59;100740.16;;;9.73;70.25
67015;BME280;1033;52.560;13.374;2023-02-23T10:28:34;100739.16;;;9.81;70.63
67015;BME280;1033;52.560;13.374;2023-02-23T10:31:15;100744.22;;;9.97;70.57
67015;BME280;1033;52.560;13.374;2023-02-23T10:33:49;100747.41;;;10.14;70.46
67015;BME280;1033;52.560;13.374;2023-02-23T10:36:30;100743.34;;;10.31;69.46
67015;BME280;1033;52.560;13.374;2023-02-23T10:39:04;100742.13;;;10.66;68.66
67015;BME280;1033;52.560;13.374;2023-02-23T10:41:34;100739.25;;;10.87;68.27
67015;BME280;1033;52.560;13.374;2023-02-23T10:44:04;100739.25;;;10.74;68.57
67015;BME280;1033;52.560;13.374;2023-02-23T10:46:43;100742.38;;;10.78;69.94
67015;BME280;1033;52.560;13.374;2023-02-23T10:49:18;100747.75;;;10.58;70.27
67015;BME280;1033;52.560;13.374;2023-02-23T10:51:51;100735.91;;;10.85;70.32
67015;BME280;1033;52.560;13.374;2023-02-23T10:54:35;100735.09;;;10.92;69.37
67015;BME280;1033;52.560;13.374;2023-02-23T10:57:06;100741.75;;;11.02;69.10
67015;BME280;1033;52.560;13.374;2023-02-23T10:59:36;100738.63;;;10.92;69.68
67015;BME280;1033;52.560;13.374;2023-02-23T11:02:26;100728.19;;;11.22;68.70
67015;BME280;1033;52.560;13.374;2023-02-23T11:04:59;100725.91;;;11.25;68.10
67015;BME280;1033;52.560;13.374;2023-02-23T11:07:31;100733.16;;;11.38;67.53
67015;BME280;1033;52.560;13.374;2023-02-23T11:10:24;100728.97;;;11.55;67.59
67015;BME280;1033;52.560;13.374;2023-02-23T11:12:54;100721.22;;;11.65;66.59
67015;BME280;1033;52.560;13.374;2023-02-23T11:15:28;100720.09;;;11.99;66.03
67015;BME280;1033;52.560;13.374;2023-02-23T11:18:20;100723.16;;;11.52;67.18
67015;BME280;1033;52.560;13.374;2023-02-23T11:20:51;100717.09;;;11.56;67.22
67015;BME280;1033;52.560;13.374;2023-02-23T11:23:25;100725.03;;;11.51;68.00
67015;BME280;1033;52.560;13.374;2023-02-23T11:25:58;100717.25;;;11.81;67.11
67015;BME280;1033;52.560;13.374;2023-02-23T11:28:31;100711.41;;;11.77;67.69
67015;BME280;1033;52.560;13.374;2023-02-23T11:31:03;100711.31;;;12.04;66.85
67015;BME280;1033;52.560;13.374;2023-02-23T11:33:38;100707.22;;;11.82;67.81
67015;BME280;1033;52.560;13.374;2023-02-23T11:36:17;100708.22;;;11.94;68.06
67015;BME280;1033;52.560;13.374;2023-02-23T11:39:03;100708.91;;;11.69;68.95
67015;BME280;1033;52.560;13.374;2023-02-23T11:41:34;100706.41;;;11.81;69.40
67015;BME280;1033;52.560;13.374;2023-02-23T11:44:04;100697.84;;;12.22;67.94
67015;BME280;1033;52.560;13.374;2023-02-23T11:46:36;100688.75;;;12.41;67.19
67015;BME280;1033;52.560;13.374;2023-02-23T11:49:08;100694.94;;;12.17;66.93
67015;BME280;1033;52.560;13.374;2023-02-23T11:51:47;100689.13;;;12.13;67.57
67015;BME280;1033;52.560;13.374;2023-02-23T11:54:20;100683.94;;;12.43;66.13
67015;BME280;1033;52.560;13.374;2023-02-23T11:56:51;100678.34;;;12.38;66.30
67015;BME280;1033;52.560;13.374;2023-02-23T11:59:27;100684.53;;;12.77;65.53
67015;BME280;1033;52.560;13.374;2023-02-23T12:02:05;100676.09;;;12.85;64.39
67015;BME280;1033;52.560;13.374;2023-02-23T12:04:46;100673.91;;;12.93;64.12
67015;BME280;1033;52.560;13.374;2023-02-23T12:07:36;100676.25;;;12.90;63.68
67015;BME280;1033;52.560;13.374;2023-02-23T12:10:20;100671.00;;;12.70;64.13
67015;BME280;1033;52.560;13.374;2023-02-23T12:12:59;100679.81;;;12.90;64.36
67015;BME280;1033;52.560;13.374;2023-02-23T12:15:38;100672.03;;;12.94;64.63
67015;BME280;1033;52.560;13.374;2023-02-23T12:18:16;100674.47;;;13.02;64.12
67015;BME280;1033;52.560;13.374;2023-02-23T12:20:48;100680.56;;;13.22;63.08
67015;BME280;1033;52.560;13.374;2023-02-23T12:23:23;100667.91;;;12.67;64.88
67015;BME280;1033;52.560;13.374;2023-02-23T12:25:58;100662.34;;;12.80;64.79
67015;BME280;1033;52.560;13.374;2023-02-23T12:28:32;100663.50;;;13.15;64.08
67015;BME280;1033;52.560;13.374;2023-02-23T12:31:12;100656.66;;;13.31;63.60
67015;BME280;1033;52.560;13.374;2023-02-23T12:33:51;100664.25;;;13.22;63.42
67015;BME280;1033;52.560;13.374;2023-02-23T12:36:26;100654.00;;;13.24;63.30
67015;BME280;1033;52.560;13.374;2023-02-23T12:39:02;100658.09;;;13.15;63.73
67015;BME280;1033;52.560;13.374;2023-02-23T12:41:38;100660.81;;;13.15;64.11
67015;BME280;1033;52.560;13.374;2023-02-23T12:44:13;100655.16;;;12.92;64.63
67015;BME280;1033;52.560;13.374;2023-02-23T12:46:51;100651.97;;;12.95;65.63
67015;BME280;1033;52.560;13.374;2023-02-23T12:49:29;100650.56;;;13.11;65.23
67015;BME280;1033;52.560;13.374;2023-02-23T12:52:03;100653.13;;;13.30;65.16
67015;BME280;1033;52.560;13.374;2023-02-23T12:54:36;100648.19;;;13.57;64.54
67015;BME280;1033;52.560;13.374;2023-02-23T12:57:13;100653.56;;;13.64;64.35
67015;BME280;1033;52.560;13.374;2023-02-23T13:02:54;100644.81;;;13.25;66.37
67015;BME280;1033;52.560;13.374;2023-02-23T13:05:37;100638.16;;;13.39;65.52
67015;BME280;1033;52.560;13.374;2023-02-23T13:08:18;100633.03;;;13.49;65.71
67015;BME280;1033;52.560;13.374;2023-02-23T13:10:58;100635.75;;;13.49;65.92
67015;BME280;1033;52.560;13.374;2023-02-23T13:13:36;100641.78;;;13.15;66.33
67015;BME280;1033;52.560;13.374;2023-02-23T13:16:13;100629.34;;;12.83;68.00
67015;BME280;1033;52.560;13.374;2023-02-23T13:18:51;100632.91;;;13.01;67.52
67015;BME280;1033;52.560;13.374;2023-02-23T13:21:27;100626.09;;;12.92;68.21
67015;BME280;1033;52.560;13.374;2023-02-23T13:24:03;100626.09;;;12.92;68.05
67015;BME280;1033;52.560;13.374;2023-02-23T13:26:38;100623.91;;;13.01;68.01
67015;BME280;1033;52.560;13.374;2023-02-23T13:29:23;100624.34;;;12.98;68.53
67015;BME280;1033;52.560;13.374;2023-02-23T13:31:54;100629.94;;;13.03;67.23
67015;BME280;1033;52.560;13.374;2023-02-23T13:34:25;100626.75;;;12.88;68.66
67015;BME280;1033;52.560;13.374;2023-02-23T13:36:56;100624.78;;;12.77;69.19
67015;BME280;1033;52.560;13.374;2023-02-23T13:39:55;100638.19;;;12.47;70.97
67015;BME280;1033;52.560;13.374;2023-02-23T13:42:38;100638.13;;;12.29;71.37
67015;BME280;1033;52.560;13.374;2023-02-23T13:45:35;100632.91;;;12.27;71.89
67015;BME280;1033;52.560;13.374;2023-02-23T13:48:17;100634.81;;;12.20;72.14
67015;BME280;1033;52.560;13.374;2023-02-23T13:50:54;100643.72;;;11.96;73.23
67015;BME280;1033;52.560;13.374;2023-02-23T13:53:41;100639.63;;;11.87;74.02
67015;BME280;1033;52.560;13.374;2023-02-23T13:56:15;100640.97;;;11.58;75.28
67015;BME280;1033;52.560;13.374;2023-02-23T13:58:47;100641.34;;;11.74;74.76
67015;BME280;1033;52.560;13.374;2023-02-23T14:01:25;100643.28;;;11.54;75.38
67015;BME280;1033;52.560;13.374;2023-02-23T14:03:57;100634.50;;;11.59;75.84
67015;BME280;1033;52.560;13.374;2023-02-23T14:06:29;100638.44;;;11.69;75.85
67015;BME280;1033;52.560;13.374;2023-02-23T14:09:05;100642.19;;;11.75;75.78
67015;BME280;1033;52.560;13.374;2023-02-23T14:11:42;100643.88;;;11.76;75.29
67015;BME280;1033;52.560;13.374;2023-02-23T14:14:17;100647.03;;;11.53;75.80
67015;BME280;1033;52.560;13.374;2023-02-23T14:17:38;100645.63;;;11.38;77.13
67015;BME280;1033;52.560;13.374;2023-02-23T14:23:27;100659.00;;;11.26;78.59
67015;BME280;1033;52.560;13.374;2023-02-23T14:26:13;100651.56;;;11.02;79.80
67015;BME280;1033;52.560;13.374;2023-02-23T14:31:59;100648.66;;;10.90;80.88
67015;BME280;1033;52.560;13.374;2023-02-23T14:34:50;100648.25;;;10.86;81.23
67015;BME280;1033;52.560;13.374;2023-02-23T14:37:27;100648.88;;;10.82;81.79
67015;BME280;1033;52.560;13.374;2023-02-23T14:40:11;100654.50;;;10.67;82.91
67015;BME280;1033;52.560;13.374;2023-02-23T14:42:48;100647.44;;;10.73;83.17
67015;BME280;1033;52.560;13.374;2023-02-23T14:45:25;100642.84;;;10.73;83.11
67015;BME280;1033;52.560;13.374;2023-02-23T14:47:59;100644.72;;;10.79;82.76
67015;BME280;1033;52.560;13.374;2023-02-23T14:50:39;100643.66;;;10.94;82.72
67015;BME280;1033;52.560;13.374;2023-02-23T14:53:19;100646.94;;;11.09;82.05
67015;BME280;1033;52.560;13.374;2023-02-23T14:55:53;100641.53;;;11.09;82.14
67015;BME280;1033;52.560;13.374;2023-02-23T14:58:28;100645.75;;;10.92;82.39
67015;BME280;1033;52.560;13.374;2023-02-23T15:01:06;100644.03;;;11.04;82.69
67015;BME280;1033;52.560;13.374;2023-02-23T15:03:41;100643.25;;;10.97;82.93
67015;BME280;1033;52.560;13.374;2023-02-23T15:06:16;100654.50;;;10.67;84.20
67015;BME280;1033;52.560;13.374;2023-02-23T15:08:53;100648.91;;;10.69;84.67
67015;BME280;1033;52.560;13.374;2023-02-23T15:11:24;100648.88;;;10.56;85.39
67015;BME280;1033;52.560;13.374;2023-02-23T15:13:55;100644.72;;;10.53;85.68
67015;BME280;1033;52.560;13.374;2023-02-23T15:16:32;100638.28;;;10.54;85.76
67015;BME280;1033;52.560;13.374;2023-02-23T15:19:04;100629.09;;;10.62;85.40
67015;BME280;1033;52.560;13.374;2023-02-23T15:21:40;100644.09;;;10.51;85.67
67015;BME280;1033;52.560;13.374;2023-02-23T15:24:12;100637.25;;;10.55;85.76
67015;BME280;1033;52.560;13.374;2023-02-23T15:26:43;100633.91;;;10.53;85.88
67015;BME280;1033;52.560;13.374;2023-02-23T15:29:16;100641.19;;;10.53;85.69
67015;BME280;1033;52.560;13.374;2023-02-23T15:31:55;100635.38;;;10.36;86.60
67015;BME280;1033;52.560;13.374;2023-02-23T15:34:27;100631.81;;;10.29;86.82
67015;BME280;1033;52.560;13.374;2023-02-23T15:37:02;100630.78;;;10.30;87.10
67015;BME280;1033;52.560;13.374;2023-02-23T15:39:36;100634.94;;;10.26;87.28
67015;BME280;1033;52.560;13.374;2023-02-23T15:42:12;100629.66;;;10.04;88.07
67015;BME280;1033;52.560;13.374;2023-02-23T15:44:42;100632.41;;;10.18;87.95
67015;BME280;1033;52.560;13.374;2023-02-23T15:47:19;100634.72;;;10.21;87.48
67015;BME280;1033;52.560;13.374;2023-02-23T15:49:50;100631.56;;;10.11;88.13
67015;BME280;1033;52.560;13.374;2023-02-23T15:52:27;100630.47;;;9.98;88.62
67015;BME280;1033;52.560;13.374;2023-02-23T15:55:05;100633.59;;;9.95;89.19
67015;BME280;1033;52.560;13.374;2023-02-23T15:57:46;100625.72;;;10.00;88.68
67015;BME280;1033;52.560;13.374;2023-02-23T16:00:20;100635.25;;;10.03;88.70
67015;BME280;1033;52.560;13.374;2023-02-23T16:03:02;100634.84;;;9.99;88.87
67015;BME280;1033;52.560;13.374;2023-02-23T16:05:35;100627.16;;;9.96;88.96
67015;BME280;1033;52.560;13.374;2023-02-23T16:08:24;100627.34;;;9.95;89.25
67015;BME280;1033;52.560;13.374;2023-02-23T16:11:03;100629.41;;;9.86;89.77
67015;BME280;1033;52.560;13.374;2023-02-23T16:13:42;100624.78;;;9.67;90.39
67015;BME280;1033;52.560;13.374;2023-02-23T16:16:15;100617.94;;;9.71;90.49
67015;BME280;1033;52.560;13.374;2023-02-23T16:18:56;100618.56;;;9.73;90.63
67015;BME280;1033;52.560;13.374;2023-02-23T16:21:30;100620.59;;;9.65;91.02
67015;BME280;1033;52.560;13.374;2023-02-23T16:24:11;100622.91;;;9.68;91.17
67015;BME280;1033;52.560;13.374;2023-02-23T16:26:51;100620.44;;;9.73;90.95
67015;BME280;1033;52.560;13.374;2023-02-23T16:29:29;100623.78;;;9.81;90.77
67015;BME280;1033;52.560;13.374;2023-02-23T16:32:01;100620.63;;;9.71;91.48
67015;BME280;1033;52.560;13.374;2023-02-23T16:34:33;100617.94;;;9.71;92.33
67015;BME280;1033;52.560;13.374;2023-02-23T16:37:14;100624.72;;;9.54;93.25
67015;BME280;1033;52.560;13.374;2023-02-23T16:39:47;100626.38;;;9.48;94.54
67015;BME280;1033;52.560;13.374;2023-02-23T16:42:29;100626.63;;;9.60;95.09
67015;BME280;1033;52.560;13.374;2023-02-23T16:45:00;100622.31;;;9.72;94.92
67015;BME280;1033;52.560;13.374;2023-02-23T16:47:34;100616.00;;;9.52;95.35
67015;BME280;1033;52.560;13.374;2023-02-23T16:50:13;100618.88;;;9.44;97.03
67015;BME280;1033;52.560;13.374;2023-02-23T16:52:50;100626.38;;;9.55;97.22
67015;BME280;1033;52.560;13.374;2023-02-23T16:55:27;100626.75;;;9.39;98.36
67015;BME280;1033;52.560;13.374;2023-02-23T16:58:02;100624.66;;;9.41;98.47
67015;BME280;1033;52.560;13.374;2023-02-23T17:00:34;100632.59;;;9.49;98.47
67015;BME280;1033;52.560;13.374;2023-02-23T17:03:15;100629.28;;;9.47;99.55
67015;BME280;1033;52.560;13.374;2023-02-23T17:05:48;100626.75;;;9.39;100.00